Lone Star Executive Airport
KCXO : now visible

Airfield :











YOU CAN JOIN US ON...

 
LOGIN :

Register | Disclaimer

   EN    FR    IT 

 









Legend :    VFR   Marginal VFR   IFR   Intensive IFR   Very Intensive IFR
Visi :
Ceiling :
>= 8 km
>= 3000ft
5 to 8 km
1000 to 3000 ft
1500m to 5 km
500 to 1000 ft
800 to 1500m
200 to 500 ft
< 800m
< 200 ft
Symbols :   Thunderstorms  Fog  Heavy snow  Heavy precipitations  Wind > 20 kt






- Airport Elevation : 245 ft


KCXO - Lone Star Executive

CURRENT METAR :
  • 232053Z 23009KT 10SM FEW070 34/23 A3009 RMK AO2 SLP186 T03440228 56020

EXPIRED METARs :
  • 231953Z 20007KT 10SM FEW049 34/23 A3011 RMK AO2 SLP191 T03440233
  • 231853Z 26005KT 10SM SCT044 BKN055 33/23 A3013 RMK AO2 SLP199 T03280233

TAF KCXO
Valid from the 23 at 18:00 until the 24 at 18:00 UTC


231720Z 2318/2418 20008KT P6SM SCT040
FM240400 18005KT P6SM FEW009 FEW015
FM241500 21009KT P6SM FEW015 SCT025
KZHU FIR / North America



MET'MAP, your aeronautical weather chart ! - Copyright ORBIFLY December 2007 - Disclaimer

ORBIFLY MET'MAP TEAM :

Programming & Development : Alexandra Zaïnal
Concept & original design : Baudouin d'Aumeries
Assistance for programming : Marc-Olivier Méhu
Technical & hardware support : Manuel Goepfert

Contact : metmap@orbifly.com




SOURCES & CREDITS :

   NOAA       Earth
Advisory